Terminal Aerodrome Forecast
Issued by NWS Binghamton, NY

Home | Current Version | Previous Version | Text Only | Print | Product List | Glossary On
Versions: 1 2 3 4 5 6 7 8 9 10 11 12 13 14 15 16 17 18 19 20 21 22 23 24
930
FTUS41 KBGM 171725
TAFBGM
TAF
KBGM 171725Z 1718/1818 17010KT P6SM SCT250
      TEMPO 1723/1724 2SM -SN OVC015
     FM180000 19010G15KT 1SM -SN OVC015
      TEMPO 1801/1805 OVC007
     FM180700 29010G20KT P6SM OVC025=

USA.gov is the U.S. government's official web portal to all federal, state and local government web resources and services.